sensor_id;sensor_type;location;lat;lon;timestamp;pressure;altitude;pressure_sealevel;temperature;humidity
12913;BME280;6524;51.368;11.984;2023-10-09T04:00:16;154135.31;;;9.82;82.15
12913;BME280;6524;51.368;11.984;2023-10-09T04:05:29;154150.94;;;9.88;82.10
12913;BME280;6524;51.368;11.984;2023-10-09T04:10:31;154190.06;;;10.04;82.42
12913;BME280;6524;51.368;11.984;2023-10-09T04:15:51;154208.34;;;10.11;82.88
12913;BME280;6524;51.368;11.984;2023-10-09T04:20:54;154229.19;;;10.19;83.25
12913;BME280;6524;51.368;11.984;2023-10-09T04:26:12;154227.91;;;10.18;84.07
12913;BME280;6524;51.368;11.984;2023-10-09T04:31:14;154250.06;;;10.27;83.97
12913;BME280;6524;51.368;11.984;2023-10-09T04:36:17;154270.91;;;10.35;83.02
12913;BME280;6524;51.368;11.984;2023-10-09T04:41:24;154231.78;;;10.20;83.86
12913;BME280;6524;51.368;11.984;2023-10-09T04:46:53;154226.59;;;10.18;85.12
12913;BME280;6524;51.368;11.984;2023-10-09T04:52:25;154252.66;;;10.28;84.85
12913;BME280;6524;51.368;11.984;2023-10-09T04:57:29;154234.44;;;10.21;85.81
12913;BME280;6524;51.368;11.984;2023-10-09T05:02:29;154170.53;;;9.96;87.57
12913;BME280;6524;51.368;11.984;2023-10-09T05:07:37;154216.19;;;10.14;86.95
12913;BME280;6524;51.368;11.984;2023-10-09T05:12:54;154251.38;;;10.28;86.17
12913;BME280;6524;51.368;11.984;2023-10-09T05:17:58;154253.97;;;10.29;85.82
12913;BME280;6524;51.368;11.984;2023-10-09T05:23:09;154265.72;;;10.33;85.74
12913;BME280;6524;51.368;11.984;2023-10-09T05:28:23;154268.31;;;10.34;85.59
12913;BME280;6524;51.368;11.984;2023-10-09T05:33:48;154283.97;;;10.40;84.70
12913;BME280;6524;51.368;11.984;2023-10-09T05:38:53;154291.78;;;10.43;85.88
12913;BME280;6524;51.368;11.984;2023-10-09T05:43:59;154276.16;;;10.37;86.54
12913;BME280;6524;51.368;11.984;2023-10-09T05:49:18;154226.59;;;10.18;87.65
12913;BME280;6524;51.368;11.984;2023-10-09T05:54:24;154205.72;;;10.10;88.59
12913;BME280;6524;51.368;11.984;2023-10-09T05:59:48;154229.19;;;10.19;89.03
12913;BME280;6524;51.368;11.984;2023-10-09T06:05:07;154244.84;;;10.25;88.68
12913;BME280;6524;51.368;11.984;2023-10-09T06:10:19;154257.91;;;10.30;88.86
12913;BME280;6524;51.368;11.984;2023-10-09T06:15:37;154360.94;;;10.71;88.38
12913;BME280;6524;51.368;11.984;2023-10-09T06:20:50;154462.72;;;11.10;87.26
12913;BME280;6524;51.368;11.984;2023-10-09T06:26:08;154552.81;;;11.46;84.77
12913;BME280;6524;51.368;11.984;2023-10-09T06:31:23;154595.84;;;11.63;84.27
12913;BME280;6524;51.368;11.984;2023-10-09T06:36:50;154631.06;;;11.76;83.82
12913;BME280;6524;51.368;11.984;2023-10-09T06:41:53;154680.78;;;11.96;82.69
12913;BME280;6524;51.368;11.984;2023-10-09T06:47:09;154526.66;;;11.35;84.98
12913;BME280;6524;51.368;11.984;2023-10-09T06:52:09;154464.06;;;11.11;87.38
12913;BME280;6524;51.368;11.984;2023-10-09T06:57:16;154402.72;;;10.87;89.23
12913;BME280;6524;51.368;11.984;2023-10-09T07:02:37;154359.59;;;10.70;90.92
12913;BME280;6524;51.368;11.984;2023-10-09T07:07:46;154347.88;;;10.65;91.23
12913;BME280;6524;51.368;11.984;2023-10-09T07:12:55;154422.28;;;10.95;90.86
12913;BME280;6524;51.368;11.984;2023-10-09T07:17:57;154453.59;;;11.07;90.63
12913;BME280;6524;51.368;11.984;2023-10-09T07:23:17;154423.56;;;10.95;91.01
12913;BME280;6524;51.368;11.984;2023-10-09T07:28:21;154492.75;;;11.22;89.85
12913;BME280;6524;51.368;11.984;2023-10-09T07:33:46;154482.31;;;11.18;90.09
12913;BME280;6524;51.368;11.984;2023-10-09T07:39:27;154461.41;;;11.10;91.30
12913;BME280;6524;51.368;11.984;2023-10-09T07:44:34;154467.97;;;11.13;91.30
12913;BME280;6524;51.368;11.984;2023-10-09T07:49:36;154495.34;;;11.23;91.39
12913;BME280;6524;51.368;11.984;2023-10-09T07:54:38;154454.88;;;11.07;91.34
12913;BME280;6524;51.368;11.984;2023-10-09T07:59:49;154474.50;;;11.15;90.68
12913;BME280;6524;51.368;11.984;2023-10-09T08:05:03;154524.06;;;11.34;90.58
12913;BME280;6524;51.368;11.984;2023-10-09T08:10:10;154520.19;;;11.33;90.91
12913;BME280;6524;51.368;11.984;2023-10-09T08:15:24;154521.47;;;11.33;90.37
12913;BME280;6524;51.368;11.984;2023-10-09T08:20:35;154573.66;;;11.54;89.91
12913;BME280;6524;51.368;11.984;2023-10-09T08:25:51;154603.69;;;11.66;89.54
12913;BME280;6524;51.368;11.984;2023-10-09T08:31:17;154602.38;;;11.65;89.58
12913;BME280;6524;51.368;11.984;2023-10-09T08:36:35;154627.19;;;11.75;89.70
12913;BME280;6524;51.368;11.984;2023-10-09T08:41:41;154691.22;;;12.00;88.70
12913;BME280;6524;51.368;11.984;2023-10-09T08:46:42;154633.78;;;11.77;89.41
12913;BME280;6524;51.368;11.984;2023-10-09T08:51:42;154654.63;;;11.86;90.29
12913;BME280;6524;51.368;11.984;2023-10-09T08:56:45;154691.22;;;12.00;89.62
12913;BME280;6524;51.368;11.984;2023-10-09T09:01:51;154683.38;;;11.97;89.94
12913;BME280;6524;51.368;11.984;2023-10-09T09:06:52;154667.69;;;11.91;90.21
12913;BME280;6524;51.368;11.984;2023-10-09T09:11:53;154693.81;;;12.01;91.01
12913;BME280;6524;51.368;11.984;2023-10-09T09:16:53;154704.28;;;12.05;90.19
12913;BME280;6524;51.368;11.984;2023-10-09T09:21:58;154687.28;;;11.98;90.81
12913;BME280;6524;51.368;11.984;2023-10-09T09:27:11;154727.75;;;12.14;90.20
12913;BME280;6524;51.368;11.984;2023-10-09T09:32:31;154795.69;;;12.41;90.18
12913;BME280;6524;51.368;11.984;2023-10-09T09:37:40;154780.00;;;12.35;89.60
12913;BME280;6524;51.368;11.984;2023-10-09T09:42:43;154798.28;;;12.42;90.00
12913;BME280;6524;51.368;11.984;2023-10-09T09:47:52;154812.66;;;12.47;89.91
12913;BME280;6524;51.368;11.984;2023-10-09T09:52:53;154796.97;;;12.41;90.22
12913;BME280;6524;51.368;11.984;2023-10-09T09:57:54;154902.81;;;12.83;89.06
12913;BME280;6524;51.368;11.984;2023-10-09T10:03:04;154900.22;;;12.82;88.95
12913;BME280;6524;51.368;11.984;2023-10-09T10:08:06;154970.78;;;13.09;87.92
12913;BME280;6524;51.368;11.984;2023-10-09T10:13:12;154987.75;;;13.16;87.04
12913;BME280;6524;51.368;11.984;2023-10-09T10:18:22;154996.91;;;13.19;87.60
12913;BME280;6524;51.368;11.984;2023-10-09T10:23:23;155013.88;;;13.26;87.27
12913;BME280;6524;51.368;11.984;2023-10-09T10:28:26;155015.19;;;13.27;88.01
12913;BME280;6524;51.368;11.984;2023-10-09T10:39:00;155011.28;;;13.25;87.37
12913;BME280;6524;51.368;11.984;2023-10-09T10:44:33;155049.19;;;13.40;86.89
12913;BME280;6524;51.368;11.984;2023-10-09T10:49:43;155057.03;;;13.43;86.85
12913;BME280;6524;51.368;11.984;2023-10-09T10:54:45;155033.50;;;13.34;87.23
12913;BME280;6524;51.368;11.984;2023-10-09T10:59:46;155002.16;;;13.22;87.56
12913;BME280;6524;51.368;11.984;2023-10-09T11:04:50;154960.28;;;13.05;87.30
12913;BME280;6524;51.368;11.984;2023-10-09T11:09:57;154995.59;;;13.19;86.71
12913;BME280;6524;51.368;11.984;2023-10-09T11:15:09;154983.81;;;13.14;86.40
12913;BME280;6524;51.368;11.984;2023-10-09T11:20:36;154989.06;;;13.16;86.26
12913;BME280;6524;51.368;11.984;2023-10-09T11:25:45;154999.50;;;13.21;85.90
12913;BME280;6524;51.368;11.984;2023-10-09T11:31:09;154985.16;;;13.15;85.52
12913;BME280;6524;51.368;11.984;2023-10-09T11:36:16;155037.41;;;13.35;86.06
12913;BME280;6524;51.368;11.984;2023-10-09T11:41:19;155034.81;;;13.34;86.17
12913;BME280;6524;51.368;11.984;2023-10-09T11:46:25;155091.00;;;13.56;85.94
12913;BME280;6524;51.368;11.984;2023-10-09T11:51:48;155036.09;;;13.35;86.73
12913;BME280;6524;51.368;11.984;2023-10-09T11:57:07;154978.63;;;13.12;88.11
12913;BME280;6524;51.368;11.984;2023-10-09T12:02:08;155038.72;;;13.36;88.12
12913;BME280;6524;51.368;11.984;2023-10-09T12:07:12;155029.56;;;13.32;88.91
12913;BME280;6524;51.368;11.984;2023-10-09T12:12:13;155025.66;;;13.31;89.08
12913;BME280;6524;51.368;11.984;2023-10-09T12:17:13;155057.03;;;13.43;89.36
12913;BME280;6524;51.368;11.984;2023-10-09T12:22:13;155093.59;;;13.57;88.81
12913;BME280;6524;51.368;11.984;2023-10-09T12:27:16;155085.75;;;13.54;90.04
12913;BME280;6524;51.368;11.984;2023-10-09T12:32:20;154983.81;;;13.14;92.00
12913;BME280;6524;51.368;11.984;2023-10-09T12:37:21;155011.28;;;13.25;91.52
12913;BME280;6524;51.368;11.984;2023-10-09T12:42:21;155033.50;;;13.34;91.73
12913;BME280;6524;51.368;11.984;2023-10-09T12:47:22;155009.97;;;13.25;92.63
12913;BME280;6524;51.368;11.984;2023-10-09T12:52:22;155062.25;;;13.45;91.62
12913;BME280;6524;51.368;11.984;2023-10-09T12:57:29;155067.47;;;13.47;91.37
12913;BME280;6524;51.368;11.984;2023-10-09T13:02:30;155037.41;;;13.35;91.93
12913;BME280;6524;51.368;11.984;2023-10-09T13:07:30;155115.91;;;13.66;91.30
12913;BME280;6524;51.368;11.984;2023-10-09T13:12:31;155140.72;;;13.76;91.21
12913;BME280;6524;51.368;11.984;2023-10-09T13:17:31;155079.22;;;13.52;91.51
12913;BME280;6524;51.368;11.984;2023-10-09T13:22:32;155072.72;;;13.49;91.57
12913;BME280;6524;51.368;11.984;2023-10-09T13:27:32;155111.94;;;13.64;90.48
12913;BME280;6524;51.368;11.984;2023-10-09T13:32:35;155162.97;;;13.84;90.21
12913;BME280;6524;51.368;11.984;2023-10-09T13:37:36;155125.03;;;13.70;91.38
12913;BME280;6524;51.368;11.984;2023-10-09T13:42:37;155100.16;;;13.60;92.37
12913;BME280;6524;51.368;11.984;2023-10-09T13:47:38;155081.88;;;13.53;92.02
12913;BME280;6524;51.368;11.984;2023-10-09T13:52:39;155098.84;;;13.59;91.85
12913;BME280;6524;51.368;11.984;2023-10-09T13:57:39;155111.94;;;13.64;92.03
12913;BME280;6524;51.368;11.984;2023-10-09T14:02:43;155121.13;;;13.68;91.66
12913;BME280;6524;51.368;11.984;2023-10-09T14:07:45;155132.88;;;13.73;91.66
12913;BME280;6524;51.368;11.984;2023-10-09T14:12:45;155041.34;;;13.37;92.64
12913;BME280;6524;51.368;11.984;2023-10-09T14:17:46;155088.38;;;13.55;92.67
12913;BME280;6524;51.368;11.984;2023-10-09T14:22:56;155017.81;;;13.28;93.34
12913;BME280;6524;51.368;11.984;2023-10-09T14:27:56;155059.63;;;13.44;93.16
12913;BME280;6524;51.368;11.984;2023-10-09T14:32:58;155075.31;;;13.50;91.93
12913;BME280;6524;51.368;11.984;2023-10-09T14:38:02;155092.31;;;13.57;91.80
12913;BME280;6524;51.368;11.984;2023-10-09T14:43:05;155062.25;;;13.45;92.18
12913;BME280;6524;51.368;11.984;2023-10-09T14:48:08;155019.13;;;13.28;92.00
12913;BME280;6524;51.368;11.984;2023-10-09T14:53:08;155016.47;;;13.27;92.70
12913;BME280;6524;51.368;11.984;2023-10-09T14:58:08;155025.66;;;13.31;92.49
12913;BME280;6524;51.368;11.984;2023-10-09T15:03:11;155023.03;;;13.30;93.28
12913;BME280;6524;51.368;11.984;2023-10-09T15:08:15;155045.25;;;13.38;92.38
12913;BME280;6524;51.368;11.984;2023-10-09T15:13:15;155085.75;;;13.54;92.58
12913;BME280;6524;51.368;11.984;2023-10-09T15:18:18;155058.34;;;13.44;92.72
12913;BME280;6524;51.368;11.984;2023-10-09T15:23:21;155011.28;;;13.25;93.85
12913;BME280;6524;51.368;11.984;2023-10-09T15:28:22;155043.94;;;13.38;92.80
12913;BME280;6524;51.368;11.984;2023-10-09T15:33:23;155025.66;;;13.31;94.10
12913;BME280;6524;51.368;11.984;2023-10-09T15:38:23;155011.28;;;13.25;94.09
12913;BME280;6524;51.368;11.984;2023-10-09T15:43:25;155050.50;;;13.40;94.19
12913;BME280;6524;51.368;11.984;2023-10-09T15:48:26;155067.47;;;13.47;93.45
12913;BME280;6524;51.368;11.984;2023-10-09T15:53:27;155076.63;;;13.51;93.08
12913;BME280;6524;51.368;11.984;2023-10-09T15:58:27;155030.88;;;13.33;93.16
12913;BME280;6524;51.368;11.984;2023-10-09T16:03:29;155041.34;;;13.37;93.45
12913;BME280;6524;51.368;11.984;2023-10-09T16:08:30;155038.72;;;13.36;93.32
12913;BME280;6524;51.368;11.984;2023-10-09T16:13:31;155085.75;;;13.54;92.99
12913;BME280;6524;51.368;11.984;2023-10-09T16:18:33;155076.63;;;13.51;92.90
12913;BME280;6524;51.368;11.984;2023-10-09T16:23:34;155088.38;;;13.55;92.88
12913;BME280;6524;51.368;11.984;2023-10-09T16:28:36;155080.53;;;13.52;92.60
12913;BME280;6524;51.368;11.984;2023-10-09T16:33:36;155070.06;;;13.48;92.68
12913;BME280;6524;51.368;11.984;2023-10-09T16:38:38;155034.81;;;13.34;94.01
12913;BME280;6524;51.368;11.984;2023-10-09T16:43:39;155017.81;;;13.28;94.26
12913;BME280;6524;51.368;11.984;2023-10-09T16:48:43;155057.03;;;13.43;93.60
12913;BME280;6524;51.368;11.984;2023-10-09T16:53:46;155051.78;;;13.41;93.48
12913;BME280;6524;51.368;11.984;2023-10-09T16:58:47;155101.44;;;13.60;92.57
12913;BME280;6524;51.368;11.984;2023-10-09T17:03:48;155049.19;;;13.40;93.60
12913;BME280;6524;51.368;11.984;2023-10-09T17:08:55;155057.03;;;13.43;93.71
12913;BME280;6524;51.368;11.984;2023-10-09T17:13:56;155093.59;;;13.57;93.22
12913;BME280;6524;51.368;11.984;2023-10-09T17:18:58;155147.28;;;13.78;92.22
12913;BME280;6524;51.368;11.984;2023-10-09T17:24:03;155183.84;;;13.93;91.35
12913;BME280;6524;51.368;11.984;2023-10-09T17:29:04;155219.19;;;14.06;90.39
12913;BME280;6524;51.368;11.984;2023-10-09T17:34:05;155179.94;;;13.91;91.49
12913;BME280;6524;51.368;11.984;2023-10-09T17:39:07;155156.41;;;13.82;91.93
12913;BME280;6524;51.368;11.984;2023-10-09T17:44:07;155130.28;;;13.72;91.75
12913;BME280;6524;51.368;11.984;2023-10-09T17:49:08;155122.44;;;13.69;92.08
12913;BME280;6524;51.368;11.984;2023-10-09T17:54:08;155101.44;;;13.60;92.21
12913;BME280;6524;51.368;11.984;2023-10-09T17:59:13;155135.47;;;13.74;91.92
12913;BME280;6524;51.368;11.984;2023-10-09T18:04:13;155110.66;;;13.64;92.26
12913;BME280;6524;51.368;11.984;2023-10-09T18:09:14;155054.41;;;13.42;93.29
12913;BME280;6524;51.368;11.984;2023-10-09T18:14:17;155053.09;;;13.41;92.55
12913;BME280;6524;51.368;11.984;2023-10-09T18:19:17;155057.03;;;13.43;92.99
12913;BME280;6524;51.368;11.984;2023-10-09T18:24:22;155087.06;;;13.55;92.03
12913;BME280;6524;51.368;11.984;2023-10-09T18:29:23;155098.84;;;13.59;91.54
12913;BME280;6524;51.368;11.984;2023-10-09T18:34:28;155084.47;;;13.54;92.10
12913;BME280;6524;51.368;11.984;2023-10-09T18:39:29;155033.50;;;13.34;92.81
12913;BME280;6524;51.368;11.984;2023-10-09T18:44:30;155060.94;;;13.45;92.83
12913;BME280;6524;51.368;11.984;2023-10-09T18:49:31;155057.03;;;13.43;92.34
12913;BME280;6524;51.368;11.984;2023-10-09T18:54:32;155067.47;;;13.47;92.66
12913;BME280;6524;51.368;11.984;2023-10-09T18:59:36;155062.25;;;13.45;92.69
12913;BME280;6524;51.368;11.984;2023-10-09T19:04:36;155074.03;;;13.50;92.28
12913;BME280;6524;51.368;11.984;2023-10-09T19:09:36;155020.44;;;13.29;93.09
12913;BME280;6524;51.368;11.984;2023-10-09T19:14:37;155026.97;;;13.31;93.62
12913;BME280;6524;51.368;11.984;2023-10-09T19:19:37;155046.56;;;13.39;93.25
12913;BME280;6524;51.368;11.984;2023-10-09T19:24:37;155028.28;;;13.32;93.30
12913;BME280;6524;51.368;11.984;2023-10-09T19:29:40;155024.31;;;13.30;93.24
12913;BME280;6524;51.368;11.984;2023-10-09T19:34:40;155002.16;;;13.22;94.08
12913;BME280;6524;51.368;11.984;2023-10-09T19:39:41;155037.41;;;13.35;93.34
12913;BME280;6524;51.368;11.984;2023-10-09T19:44:42;155054.41;;;13.42;92.75
12913;BME280;6524;51.368;11.984;2023-10-09T19:49:42;155032.16;;;13.33;93.51
12913;BME280;6524;51.368;11.984;2023-10-09T19:54:43;155025.66;;;13.31;93.65
12913;BME280;6524;51.368;11.984;2023-10-09T19:59:43;155064.88;;;13.46;93.04
12913;BME280;6524;51.368;11.984;2023-10-09T20:04:44;155088.38;;;13.55;92.43
12913;BME280;6524;51.368;11.984;2023-10-09T20:09:44;155118.50;;;13.67;92.24
12913;BME280;6524;51.368;11.984;2023-10-09T20:14:47;155083.16;;;13.53;92.25
12913;BME280;6524;51.368;11.984;2023-10-09T20:19:48;155093.59;;;13.57;92.50
12913;BME280;6524;51.368;11.984;2023-10-09T20:24:52;155043.94;;;13.38;93.98
12913;BME280;6524;51.368;11.984;2023-10-09T20:29:52;155106.69;;;13.62;92.48
12913;BME280;6524;51.368;11.984;2023-10-09T20:34:54;155104.06;;;13.61;92.80
12913;BME280;6524;51.368;11.984;2023-10-09T20:39:57;155029.56;;;13.32;93.30
12913;BME280;6524;51.368;11.984;2023-10-09T20:44:59;155011.28;;;13.25;94.13
12913;BME280;6524;51.368;11.984;2023-10-09T20:50:00;155033.50;;;13.34;93.57
12913;BME280;6524;51.368;11.984;2023-10-09T20:55:01;155084.47;;;13.54;93.01
12913;BME280;6524;51.368;11.984;2023-10-09T21:00:02;155059.63;;;13.44;93.64
12913;BME280;6524;51.368;11.984;2023-10-09T21:05:04;155064.88;;;13.46;93.57
12913;BME280;6524;51.368;11.984;2023-10-09T21:10:05;155085.75;;;13.54;93.24
12913;BME280;6524;51.368;11.984;2023-10-09T21:15:05;155108.00;;;13.63;92.82
12913;BME280;6524;51.368;11.984;2023-10-09T21:20:08;155072.72;;;13.49;93.51
12913;BME280;6524;51.368;11.984;2023-10-09T21:25:18;155094.91;;;13.58;93.21
12913;BME280;6524;51.368;11.984;2023-10-09T21:30:21;155064.88;;;13.46;93.73
12913;BME280;6524;51.368;11.984;2023-10-09T21:35:23;155058.34;;;13.44;93.81
12913;BME280;6524;51.368;11.984;2023-10-09T21:40:28;155089.72;;;13.56;93.39
12913;BME280;6524;51.368;11.984;2023-10-09T21:45:29;155047.84;;;13.39;94.08
12913;BME280;6524;51.368;11.984;2023-10-09T21:50:29;155032.16;;;13.33;94.29
12913;BME280;6524;51.368;11.984;2023-10-09T21:55:29;155028.28;;;13.32;94.43
12913;BME280;6524;51.368;11.984;2023-10-09T22:00:34;155041.34;;;13.37;94.39
12913;BME280;6524;51.368;11.984;2023-10-09T22:05:39;155072.72;;;13.49;93.86
12913;BME280;6524;51.368;11.984;2023-10-09T22:10:43;155037.41;;;13.35;94.32
12913;BME280;6524;51.368;11.984;2023-10-09T22:15:45;155068.78;;;13.48;92.89
12913;BME280;6524;51.368;11.984;2023-10-09T22:20:47;155074.03;;;13.50;92.28
12913;BME280;6524;51.368;11.984;2023-10-09T22:25:47;155062.25;;;13.45;92.59
12913;BME280;6524;51.368;11.984;2023-10-09T22:31:01;155028.28;;;13.32;92.69
12913;BME280;6524;51.368;11.984;2023-10-09T22:36:04;155036.09;;;13.35;92.48
12913;BME280;6524;51.368;11.984;2023-10-09T22:41:04;155072.72;;;13.49;91.45
12913;BME280;6524;51.368;11.984;2023-10-09T22:46:06;155070.06;;;13.48;90.71
12913;BME280;6524;51.368;11.984;2023-10-09T22:51:07;155040.00;;;13.36;91.04
12913;BME280;6524;51.368;11.984;2023-10-09T22:56:10;154986.47;;;13.15;91.22
12913;BME280;6524;51.368;11.984;2023-10-09T23:01:12;154981.22;;;13.13;90.34
12913;BME280;6524;51.368;11.984;2023-10-09T23:06:12;154994.31;;;13.18;90.29
12913;BME280;6524;51.368;11.984;2023-10-09T23:11:16;155004.75;;;13.23;89.58
12913;BME280;6524;51.368;11.984;2023-10-09T23:16:25;154994.31;;;13.18;89.00
12913;BME280;6524;51.368;11.984;2023-10-09T23:21:35;154998.19;;;13.20;88.83
12913;BME280;6524;51.368;11.984;2023-10-09T23:26:54;155015.19;;;13.27;88.34
12913;BME280;6524;51.368;11.984;2023-10-09T23:31:59;154995.59;;;13.19;88.70
12913;BME280;6524;51.368;11.984;2023-10-09T23:37:20;154968.13;;;13.08;89.16
12913;BME280;6524;51.368;11.984;2023-10-09T23:42:33;154965.53;;;13.07;89.10
12913;BME280;6524;51.368;11.984;2023-10-09T23:47:37;154989.06;;;13.16;88.80
12913;BME280;6524;51.368;11.984;2023-10-09T23:52:41;154996.91;;;13.19;88.57
12913;BME280;6524;51.368;11.984;2023-10-09T23:57:44;154981.22;;;13.13;88.99
